Aviation Digital Data Service (ADDS)

Output produced by METARs form (1233 UTC 15 November 2018)
found at http://www.aviationweather.gov/metar/data/
 
WABB 151100Z 32006KT 9999 FEW018 BKN100 26/25 Q2020 NOSIG
TAF WABB 151100Z 1512/1618 00000KT 9999 SCT018 
     TEMPO 1514/1518 5000 RA FEW017CB 
     BECMG 1522/1600 25006KT
       
WAAA 151130Z 00000KT 8000 FEW019 30/27 Q1010 NOSIG
TAF WAAA 151100Z 1512/1618 09004KT 8000 FEW019 
     BECMG 1601/1603 30010KT 9999 SCT019 
     TEMPO 1606/1609 7000 TSRA FEW018CB 
     BECMG 1611/1613 11004KT 8000
       
WAPP 151230Z 34006KT 9999 SCT019 26/24 Q1010 NOSIG
TAF WAPP 151100Z 1512/1612 34006KT 9999 SCT018 
     BECMG 1517/1520 5000 TSRA FEW015CB BKN016
       
WIMM 151200Z 34004KT 9999 SCT018 27/24 Q1009 NOSIG
TAF WIMM 151100Z 1512/1612 VRB03KT 3000 BR SCT018 
     BECMG 1602/1604 36005KT 7000 
     TEMPO 1606/1610 -RA FEW017CB BKN018
       
WAMM 151230Z VRB02KT 9999 FEW023 26/25 Q1012 NOSIG
TAF WAMM 151100Z 1512/1618 02002KT 9000 FEW022 
     PROB30 
     TEMPO 1515/1519 5000 -RA SCT017 
     BECMG 1523/1601 35008KT SCT020
       
WAJJ 151230Z 28006KT 9999 FEW013 27/24 Q1009 NOSIG
WIII 151230Z VRB03KT 6000 FEW019CB SCT020 28/22 Q1010 RERA NOSIG RMK CB TO SE
TAF WIII 151100Z 1512/1618 25010KT 7000 SCT020 
     TEMPO 1515/1518 15010KT 4000 TSRA FEW019CB BKN020 
     BECMG 1518/1520 24005KT 4000 BR SCT020 
     BECMG 1602/1604 35006KT 8000 NSW
       
TAF WITT 151100Z 1512/1612 14005KT 8000 SCT018 
     BECMG 1413/1415 VRB05KT 
     TEMPO 1605/1609 4000 -RA FEW015CB SCT016
       
WIPP 151200Z 36006KT 9999 FEW012 27/24 Q1009
TAF WIPP 151100Z 1512/1612 16007KT 9999 SCT012 
     PROB30 
     TEMPO 1514/1519 5000 RA FEW013CB 
     TEMPO 1521/1601 3000 BR
       
WIBB 151200Z 00000KT 8000 FEW015 26/25 Q1009
WIOO 151230Z 06003KT 6000 FEW012 26/24 Q1009